首页
METAR-TAF:

METAR-TAF

机场 :

胡利亞卡, 秘鲁

纬度: 15-29S, 经度: 070-09W, 海拔: 3826米

当前天气观测

该预报发布于9小时和6分钟前的00:00 UTC
风速7节,风向北转东北
温度 10°C
湿度 10%
气压 1037 hPa
能见度10公里或以上
1500米以下无云,无积雨云

METAR: SPJL 200000Z 02007KT CAVOK 10/M20 Q1037 RMK BIRD HAZARD RWY 12/30 PP000

时间: 04:06 (09:06 UTC)

预报

该预报发布于15小时和56分钟前的17:10 UTC
预报有效从19日的 18点(UTC)到 20日的 18点(UTC)
风速6节,风向北转西北
能见度10公里或以上
1500米以下无云,无积雨云
成为
从 19日的 19点(UTC)到 19日的 21点(UTC)
风速14节,风向东转东南
成为
从 19日的 22点(UTC)到 19日的 24点(UTC)
风速4节,风向多变

TAF: SPJL 191710Z 1918/2018 33006KT CAVOK TX18/1919Z TNM04/2010Z BECMG 1919/1921 12014KT BECMG 1922/1924 VRB04KT

超过4000个机场的气象观测和天气预报(METAR&TAF报告)。

可查询的气象台以黄色和红色小点在地图上表示。

将鼠标移到小点上方,可查看气象台名称。

然后点击查看天气观测和预报。

如需切换地图:点击带黑十字的绿色按钮放大地图;点击带横线的绿色按钮缩小地图;或者点击绿色箭头查看邻近地区的地图。


METAR-TAF: